Portada
METAR-TAF:

METAR-TAF

Aeroports :

Kastamonu, Turquia

latitud: 41-19-01N, longitud: 33-47-46E, altitud: 1073 m

Observació

L'informe es va fer fa 5 hores i 10 minuts, a les 10:50 UTC
Vent 7 kt del Nord/Nord-Oest, variant entre Oest/Nord-Oest i Nord
Temperatura 24°C
Humitat 38%
Pressió 1019 hPa
Visibilitat 10 km o més
Escasses núvols a una alçada de 3500 ft

METAR: LTAL 211050Z 33007KT 300V010 9999 FEW035 24/09 Q1019

Hora: 19:00 (16:00 UTC)

Pronòstic

L'informe es va fer fa 5 hores i 20 minuts, a les 10:40 UTC
Pronòstic vàlid del 21 a les 12 UTC al 21 a les 21 UTC
Vent 8 kt del Nord-Oest
Visibilitat 10 km o més
Escasses núvols a una alçada de 3000 ft

TAF: LTAL 211040Z 2112/2121 32008KT 9999 FEW030

Observacions i pronòstics meteorològics de més de 4000 aeroports (METAR i TAF).

Les estacions disponibles són els punts grocs i vermells al mapa.

Posi el ratolí al punt desitjat per veure el nom de l'estació.

Feu clic per veure les observacions i els pronòstics meteorològics.

Per canviar el mapa: feu clic els botons verds amb una creu de color negre per apropar; al botó verd amb un guió per allunyar la imatge; o en les fletxes verdes per a mapes adjacents.


METAR-TAF: